Home > Products > Valid Products > MTR

000
SAUS43 KDDC 290757
MTRP28
METAR KP28 290756Z AUTO 35018G25KT 11/01 A3011 RMK AO1 SLP192
T01110011





000
SAUS43 KDDC 290658
MTRP28
METAR KP28 290656Z AUTO 34011KT 11/00 A3011 RMK AO1 SLP191 T01060000





000
SAUS43 KDDC 290557
MTRP28
METAR KP28 290556Z AUTO 34011KT 12/00 A3008 RMK AO1 SLP183 T01220000
10194 20122 402500050 53037





000
SAUS43 KDDC 290457
MTRP28
METAR KP28 290456Z AUTO 34014KT 14/01 A3004 RMK AO1 SLP167 T01440006





000
SAUS43 KDDC 290357
MTRP28
METAR KP28 290356Z AUTO 32009KT 14/01 A3000 RMK AO1 SLP158 T01390006





000
SAUS43 KDDC 290257
MTRP28
METAR KP28 290256Z AUTO 30007KT 14/M01 A2997 RMK AO1 SLP148
T01441006 53031





000
SAUS43 KDDC 290158
MTRP28
METAR KP28 290156Z AUTO 35003KT 14/M01 A2994 RMK AO1 SLP139
T01391011





000
SAUS43 KDDC 290057
MTRP28
METAR KP28 290056Z AUTO 27005KT 18/M02 A2990 RMK AO1 SLP122
T01781022





000
SAUS43 KDDC 290057
MTRP28
METAR KP28 290056Z AUTO 27005KT 18/M02 A2990 RMK AO1 SLP122
T01781022





000
SAUS43 KDDC 282357
MTRP28
METAR KP28 282356Z AUTO 31006KT 20/M02 A2987 RMK AO1 SLP112
T02001022 10250 20172 53012





000
SAUS43 KDDC 282258
MTRP28
METAR KP28 282256Z AUTO 33006KT 23/M02 A2985 RMK AO1 SLP102
T02281017





000
SAUS43 KDDC 282158
MTRP28
METAR KP28 282156Z AUTO 36008KT 25/M01 A2982 RMK AO1 SLP092
T02501006





000
SAUS43 KDDC 282058
MTRP28
METAR KP28 282056Z AUTO 35013G24KT 24/M01 A2984 RMK AO1 SLP096
T02441011 55014





000
SAUS43 KDDC 281957
MTRP28
METAR KP28 281956Z AUTO 34008KT 21/01 A2982 RMK AO1 SLP091 T02060011





000
SAUS43 KDDC 281857
MTRP28
METAR KP28 281856Z AUTO 28008KT 18/02 A2984 RMK AO1 SLP101 T01780022





000
SAUS43 KDDC 281757
MTRP28
METAR KP28 281756Z AUTO 26009G16KT 17/03 A2988 RMK AO1 SLP113
T01720028 10178 20050 55004





000
SAUS43 KDDC 281657
MTRP28
METAR KP28 281656Z AUTO 25006KT 17/03 A2988 RMK AO1 SLP112 T01670033





000
SAUS43 KDDC 281557
MTRP28
METAR KP28 281556Z AUTO 19007KT 12/02 A2987 RMK AO1 SLP111 T01220022





000
SAUS43 KDDC 281458
MTRP28
METAR KP28 281456Z AUTO 18005KT 09/02 A2989 RMK AO1 SLP119 T00890022
52001





000
SAUS43 KDDC 281357
MTRP28
METAR KP28 281356Z AUTO 16004KT 07/02 A2989 RMK AO1 SLP119 T00670017





000
SAUS43 KDDC 281357
MTRP28
METAR KP28 281356Z AUTO 16004KT 07/02 A2989 RMK AO1 SLP119 T00670017





000
SAUS43 KDDC 281258
MTRP28
METAR KP28 281256Z AUTO 16006KT 07/02 A2989 RMK AO1 SLP118 T00720017





000
SAUS43 KDDC 281158
MTRP28
METAR KP28 281156Z AUTO VRB03KT 07/01 A2989 RMK AO1 SLP116 T00720011
10128 20056 56016





000
SAUS43 KDDC 281058
MTRP28
METAR KP28 281056Z AUTO 13005KT 08/01 A2990 RMK AO1 SLP116 T00780011





000
SAUS43 KDDC 280958
MTRP28
METAR KP28 280956Z AUTO 12004KT 08/01 A2992 RMK AO1 SLP123 T00780011





000
SAUS43 KDDC 280958
MTRP28
METAR KP28 280956Z AUTO 12004KT 08/01 A2992 RMK AO1 SLP123 T00780011





000
SAUS43 KDDC 280858
MTRP28
METAR KP28 280856Z AUTO 16003KT 09/01 A2994 RMK AO1 SLP129 T00940011
58013





000
SAUS43 KDDC 280858
MTRP28
METAR KP28 280856Z AUTO 16003KT 09/01 A2994 RMK AO1 SLP129 T00940011
58013





000
SAUS43 KDDC 280758
MTRP28
METAR KP28 280756Z AUTO 15004KT 12/01 A2995 RMK AO1 SLP134 T01170006





000
SAUS43 KDDC 280657
MTRP28
METAR KP28 280656Z AUTO 17004KT 12/00 A2996 RMK AO1 SLP139 T01170000





000
SAUS43 KDDC 280657
MTRP28
METAR KP28 280656Z AUTO 17004KT 12/00 A2996 RMK AO1 SLP139 T01170000





000
SAUS43 KDDC 280557
MTRP28
METAR KP28 280556Z AUTO 19004KT 12/00 A2998 RMK AO1 SLP146 T01220000
10228 20117 402780006 55001





000
SAUS43 KDDC 280557
MTRP28
METAR KP28 280556Z AUTO 19004KT 12/00 A2998 RMK AO1 SLP146 T01220000
10228 20117 402780006 55001





000
SAUS43 KDDC 280458
MTRP28
METAR KP28 280456Z AUTO 20006KT 13/M01 A2997 RMK AO1 SLP146
T01331006





000
SAUS43 KDDC 280357
MTRP28
METAR KP28 280356Z AUTO 20007KT 13/M02 A2998 RMK AO1 SLP150
T01331017





000
SAUS43 KDDC 280258
MTRP28
METAR KP28 280256Z AUTO 19008KT 17/M02 A2998 RMK AO1 SLP151
T01671017 50000





000
SAUS43 KDDC 280258
MTRP28
METAR KP28 280256Z AUTO 19008KT 17/M02 A2998 RMK AO1 SLP151
T01671017 50000





000
SAUS43 KDDC 280158
MTRP28
METAR KP28 280156Z AUTO 22004KT 18/M02 A2998 RMK AO1 SLP154
T01831022





000
SAUS43 KDDC 280057
MTRP28
METAR KP28 280056Z AUTO 21009KT 21/M02 A2998 RMK AO1 SLP153
T02061022





000
SAUS43 KDDC 272358
MTRP28
METAR KP28 272356Z AUTO 21007KT 23/M03 A2998 RMK AO1 SLP149
T02281028 10278 20183 56006





000
SAUS43 KDDC 272257
MTRP28
METAR KP28 272256Z AUTO 21008KT 27/M02 A2998 RMK AO1 SLP148
T02671017





000
SAUS43 KDDC 272157
MTRP28
METAR KP28 272156Z AUTO 23013G20KT 27/M03 A2999 RMK AO1 SLP150
T02721028





000
SAUS43 KDDC 272057
MTRP28
METAR KP28 272056Z AUTO 21011KT 27/M01 A3000 RMK AO1 SLP153
T02671011 56035





000
SAUS43 KDDC 271958
MTRP28
METAR KP28 271956Z AUTO 20009KT 24/01 A3003 RMK AO1 SLP165 T02390006





000
SAUS43 KDDC 271857
MTRP28
METAR KP28 271856Z AUTO 23009KT 22/01 A3006 RMK AO1 SLP178 T02220006





000
SAUS43 KDDC 271758
MTRP28
METAR KP28 271756Z AUTO 18007KT 18/02 A3011 RMK AO1 SLP194 T01830017
10183 20011 58008





000
SAUS43 KDDC 271657
MTRP28
METAR KP28 271656Z AUTO 18006KT 14/01 A3013 RMK AO1 SLP205 T01440006





000
SAUS43 KDDC 271557
MTRP28
METAR KP28 271556Z AUTO 00000KT 11/01 A3014 RMK AO1 SLP209 T01060006





000
SAUS43 KDDC 271457
MTRP28
METAR KP28 271456Z AUTO 00000KT 06/01 A3013 RMK AO1 SLP207 T00560006
51011





000
SAUS43 KDDC 271357
MTRP28
METAR KP28 271356Z AUTO 00000KT 02/M01 A3013 RMK AO1 SLP206
T00221011





000
SAUS43 KDDC 271258
MTRP28
METAR KP28 271256Z AUTO 35004KT 02/M01 A3011 RMK AO1 SLP200
T00221011





000
SAUS43 KDDC 271158
MTRP28
METAR KP28 271156Z AUTO 32006KT 02/M01 A3010 RMK AO1 SLP193
T00221011 10044 20006 55002





000
SAUS43 KDDC 271058
MTRP28
METAR KP28 271056Z AUTO 34005KT 01/M02 A3010 RMK AO1 SLP191
T00061017





000
SAUS43 KDDC 270958
MTRP28
METAR KP28 270956Z AUTO 34005KT 02/M01 A3010 RMK AO1 SLP191
T00221011





000
SAUS43 KDDC 270958
MTRP28
METAR KP28 270956Z AUTO 34005KT 02/M01 A3010 RMK AO1 SLP191
T00221011





000
SAUS43 KDDC 270858
MTRP28
METAR KP28 270856Z AUTO 34006KT 03/M01 A3010 RMK AO1 SLP192
T00281011 53004





000
SAUS43 KDDC 270758
MTRP28
METAR KP28 270756Z AUTO 33005KT 03/M01 A3009 RMK AO1 SLP188
T00331011





000
SAUS43 KDDC 270657
MTRP28
METAR KP28 270656Z AUTO 34005KT 03/M01 A3009 RMK AO1 SLP188
T00331011





000
SAUS43 KDDC 270557
MTRP28
METAR KP28 270556Z AUTO 36004KT 04/M01 A3009 RMK AO1 SLP189
T00441006 10178 20039 402331050 53004





000
SAUS43 KDDC 270457
MTRP28
METAR KP28 270456Z AUTO 36005KT 06/M01 A3009 RMK AO1 SLP189
T00561006





000
SAUS43 KDDC 270357
MTRP28
METAR KP28 270356Z AUTO 01005KT 07/00 A3008 RMK AO1 SLP190 T00720000





000
SAUS43 KDDC 270257
MTRP28
METAR KP28 270256Z AUTO 00000KT 11/00 A3008 RMK AO1 SLP192 T01060000
53009





000
SAUS43 KDDC 270157
MTRP28
METAR KP28 270156Z AUTO 35003KT 12/01 A3007 RMK AO1 SLP190 T01170006





000
SAUS43 KDDC 270057
MTRP28
METAR KP28 270056Z AUTO 02006KT 14/01 A3006 RMK AO1 SLP186 T01390006





000
SAUS43 KDDC 262357
MTRP28
METAR KP28 262356Z AUTO 35006KT 18/00 A3005 RMK AO1 SLP181 T01780000
10233 20178 53014





000
SAUS43 KDDC 262258
MTRP28
METAR KP28 262256Z AUTO 33008G20KT 22/00 A3003 RMK AO1 SLP170
T02220000





000
SAUS43 KDDC 262157
MTRP28
METAR KP28 262156Z AUTO 33011KT 23/01 A3002 RMK AO1 SLP164 T02330006





000
SAUS43 KDDC 262057
MTRP28
METAR KP28 262056Z AUTO 32017G25KT 23/00 A3001 RMK AO1 SLP163
T02280000 56020





000
SAUS43 KDDC 261957
MTRP28
METAR KP28 261956Z AUTO 34016G26KT 22/01 A3002 RMK AO1 PK WND
34026/1950 SLP168 T02220006





000
SAUS43 KDDC 261858
MTRP28
METAR KP28 261856Z AUTO 34012G18KT 22/01 A3004 RMK AO1 SLP174
T02170011





000
SAUS43 KDDC 261757
MTRP28
METAR KP28 261756Z AUTO 31009KT 19/01 A3007 RMK AO1 SLP184 T01940011
10194 21050 50002





000
SAUS43 KDDC 261658
MTRP28
METAR KP28 261656Z AUTO 32012G16KT 16/01 A3008 RMK AO1 SLP188
T01610006





000
SAUS43 KDDC 261557
MTRP28
METAR KP28 261556Z AUTO 28006KT 09/01 A3006 RMK AO1 SLP187 T00940011





000
SAUS43 KDDC 261458
MTRP28
METAR KP28 261456Z AUTO 28003KT 02/M02 A3006 RMK AO1 SLP191
T00221022 55002





000
SAUS43 KDDC 261358
MTRP28
METAR KP28 261356Z AUTO 35005KT M04/M06 A3006 RMK AO1 SLP191
T10441061





000
SAUS43 KDDC 261257
MTRP28
METAR KP28 261256Z AUTO 00000KT M04/M06 A3006 RMK AO1 SLP190
T10391061





000
SAUS43 KDDC 261157
MTRP28
METAR KP28 261156Z AUTO 00000KT M04/M06 A3007 RMK AO1 SLP192
T10391061 11011 21044 56025





000
SAUS43 KDDC 261057
MTRP28
METAR KP28 261056Z AUTO 00000KT M02/M05 A3009 RMK AO1 SLP196
T10221050





000
SAUS43 KDDC 260958
MTRP28
METAR KP28 260956Z AUTO 00000KT M02/M05 A3011 RMK AO1 SLP203
T10171050





000
SAUS43 KDDC 260858
MTRP28
METAR KP28 260856Z AUTO 34003KT M04/M06 A3015 RMK AO1 SLP217
T10391061 56004





    US Dept of Commerce
    National Oceanic and Atmospheric Administration
    National Weather Service
    1325 East West Highway
    Silver Spring, MD 20910
    Page Author: NWS Internet Services Team
Disclaimer
Information Quality
Credits
Glossary
Privacy Policy
Freedom of Information Act (FOIA)
About Us
Career Opportunities